Time;durP1;ratioP1;P1;durP2;ratioP2;P2;SDS_P1;SDS_P2;PMS_P1;PMS_P2;Temp;Humidity;BMP_temperature;BMP_pressure;BME280_temperature;BME280_humidity;BME280_pressure;Samples;Min_cycle;Max_cycle;Signal;HPM_P1;HPM_P2
2022/09/29 00:00:56;;;;;;;13.60;12.47;;;7.70;99.90;;;;;;4940194;29;20240;-76
2022/09/29 00:03:23;;;;;;;14.10;12.70;;;7.70;99.90;;;;;;4930851;29;20288;-76
2022/09/29 00:05:51;;;;;;;13.40;12.40;;;7.70;99.90;;;;;;4949491;29;20210;-76
2022/09/29 00:08:20;;;;;;;13.47;12.37;;;7.70;99.90;;;;;;4954658;28;20722;-76
2022/09/29 00:10:47;;;;;;;12.80;11.80;;;7.80;99.90;;;;;;4948394;29;20206;-76
2022/09/29 00:13:14;;;;;;;13.63;12.27;;;7.80;99.90;;;;;;4936159;29;20236;-76
2022/09/29 00:15:42;;;;;;;12.53;11.63;;;7.80;99.90;;;;;;4951227;28;20217;-76
2022/09/29 00:18:11;;;;;;;13.17;12.07;;;7.80;99.90;;;;;;4933002;29;20262;-76
2022/09/29 00:20:38;;;;;;;12.93;12.00;;;7.80;99.90;;;;;;4949540;29;20641;-76
2022/09/29 00:23:05;;;;;;;13.07;12.07;;;7.80;99.90;;;;;;4951912;29;20221;-76
2022/09/29 00:25:32;;;;;;;12.47;11.57;;;7.80;99.90;;;;;;4931727;29;20198;-76
2022/09/29 00:27:59;;;;;;;13.70;12.63;;;7.70;99.90;;;;;;4931888;29;20210;-76
2022/09/29 00:30:26;;;;;;;13.43;12.37;;;7.70;99.90;;;;;;4931104;29;20210;-76
2022/09/29 00:32:53;;;;;;;12.97;12.00;;;7.70;99.90;;;;;;4952924;29;20233;-76
2022/09/29 00:35:21;;;;;;;13.50;12.47;;;7.80;99.90;;;;;;4933000;29;20569;-76
2022/09/29 00:37:48;;;;;;;12.83;11.93;;;7.70;99.90;;;;;;4951815;29;20192;-76
2022/09/29 00:40:15;;;;;;;12.73;11.83;;;7.80;99.90;;;;;;4948435;29;20792;-76
2022/09/29 00:42:42;;;;;;;13.40;12.40;;;7.80;99.90;;;;;;4952318;29;20223;-76
2022/09/29 00:45:21;;;;;;;13.20;12.20;;;7.80;99.90;;;;;;4948564;29;20256;-76
2022/09/29 00:48:01;;;;;;;13.20;12.20;;;7.80;99.90;;;;;;4929139;29;20236;-76
2022/09/29 00:50:40;;;;;;;12.97;12.07;;;7.90;99.90;;;;;;4939523;29;20218;-76
2022/09/29 00:53:10;;;;;;;11.80;11.00;;;7.90;99.90;;;;;;4948533;29;20276;-76
2022/09/29 00:55:42;;;;;;;13.40;12.30;;;7.90;99.90;;;;;;4938281;28;20244;-76
2022/09/29 00:58:18;;;;;;;12.70;11.70;;;7.80;99.90;;;;;;4935126;29;20713;-76
2022/09/29 01:00:45;;;;;;;12.70;11.80;;;7.90;99.90;;;;;;4949260;28;20276;-76
2022/09/29 01:03:16;;;;;;;13.43;12.23;;;7.90;99.90;;;;;;4943842;29;20225;-76
2022/09/29 01:05:49;;;;;;;13.57;12.43;;;7.90;99.90;;;;;;4932474;29;20257;-76
2022/09/29 01:08:24;;;;;;;12.80;11.80;;;7.90;99.90;;;;;;4947365;29;20269;-76
2022/09/29 01:10:53;;;;;;;13.50;12.40;;;7.90;99.90;;;;;;4944394;29;20202;-76
2022/09/29 01:13:21;;;;;;;13.53;12.47;;;7.90;99.90;;;;;;4928394;29;20223;-76
2022/09/29 01:15:48;;;;;;;13.47;12.27;;;7.90;99.90;;;;;;4948198;29;20199;-76
2022/09/29 01:18:15;;;;;;;12.80;11.90;;;7.90;99.90;;;;;;4934226;29;20215;-76
2022/09/29 01:20:53;;;;;;;13.00;12.20;;;7.90;99.90;;;;;;4932052;29;20217;-76
2022/09/29 01:23:46;;;;;;;13.47;12.37;;;7.90;99.90;;;;;;4915763;29;20220;-75
2022/09/29 01:26:59;;;;;;;12.80;11.90;;;7.90;99.90;;;;;;4947512;28;20216;-75
2022/09/29 01:30:13;;;;;;;13.10;12.20;;;7.90;99.90;;;;;;4947755;29;20222;-75
2022/09/29 01:33:03;;;;;;;13.83;12.67;;;7.90;99.90;;;;;;4930149;23;20598;-77
2022/09/29 01:35:37;;;;;;;13.10;12.30;;;7.90;99.90;;;;;;4952144;29;20209;-77
2022/09/29 01:38:15;;;;;;;14.10;13.10;;;7.90;99.90;;;;;;4945285;29;20261;-77
2022/09/29 01:40:50;;;;;;;14.67;13.47;;;7.90;99.90;;;;;;4941574;29;20589;-78
2022/09/29 01:43:20;;;;;;;13.90;12.90;;;7.90;99.90;;;;;;4951235;29;20304;-77
2022/09/29 01:45:53;;;;;;;14.30;13.10;;;7.90;99.90;;;;;;4941862;29;20211;-78
2022/09/29 01:48:26;;;;;;;13.57;12.67;;;8.00;99.90;;;;;;4945093;29;20209;-78
2022/09/29 01:50:57;;;;;;;13.00;12.03;;;8.00;99.90;;;;;;4945037;29;20221;-78
2022/09/29 01:53:28;;;;;;;13.20;12.30;;;8.00;99.90;;;;;;4943248;29;20222;-78
2022/09/29 01:56:01;;;;;;;13.30;12.33;;;8.00;99.90;;;;;;4941982;29;20650;-78
2022/09/29 01:58:34;;;;;;;12.87;11.97;;;8.10;99.90;;;;;;4938012;29;20732;-78
2022/09/29 02:01:06;;;;;;;13.47;12.50;;;8.10;99.90;;;;;;4944937;29;20221;-78
2022/09/29 02:03:40;;;;;;;13.17;12.37;;;8.10;99.90;;;;;;4937661;29;20712;-78
2022/09/29 02:06:12;;;;;;;13.63;12.67;;;8.00;99.90;;;;;;4944556;29;20210;-78
2022/09/29 02:08:43;;;;;;;12.90;12.00;;;8.10;99.90;;;;;;4947288;29;20209;-78
2022/09/29 02:11:12;;;;;;;12.63;11.73;;;8.10;99.90;;;;;;4949206;29;20213;-78
2022/09/29 02:13:44;;;;;;;12.73;11.60;;;8.10;99.90;;;;;;4945237;29;20329;-78
2022/09/29 02:16:14;;;;;;;13.03;12.10;;;8.10;99.90;;;;;;4944539;29;20215;-78
2022/09/29 02:18:47;;;;;;;14.17;12.87;;;8.10;99.90;;;;;;4951750;29;20201;-78
2022/09/29 02:21:14;;;;;;;13.13;12.23;;;8.10;99.90;;;;;;4945698;29;20205;-78
2022/09/29 02:23:41;;;;;;;14.23;13.13;;;8.20;99.90;;;;;;4947246;29;20226;-78
2022/09/29 02:26:09;;;;;;;13.27;12.27;;;8.20;99.90;;;;;;4947352;29;20253;-78
2022/09/29 02:28:37;;;;;;;13.00;12.10;;;8.20;99.90;;;;;;4946547;29;20266;-78
2022/09/29 02:31:06;;;;;;;14.07;12.87;;;8.20;99.90;;;;;;4946674;29;20260;-78
2022/09/29 02:33:33;;;;;;;14.30;13.20;;;8.20;99.90;;;;;;4945921;29;20651;-78
2022/09/29 02:36:18;;;;;;;14.77;13.23;;;8.20;99.90;;;;;;4949692;29;20617;-78
2022/09/29 02:38:53;;;;;;;13.10;12.20;;;8.20;99.90;;;;;;4941171;29;20400;-78
2022/09/29 02:41:43;;;;;;;12.50;11.70;;;8.10;99.90;;;;;;4942250;29;20215;-77
2022/09/29 02:44:40;;;;;;;13.03;12.13;;;8.20;99.90;;;;;;4944446;29;20223;-78
2022/09/29 02:47:19;;;;;;;12.50;11.70;;;8.20;99.90;;;;;;4948753;28;20222;-78
2022/09/29 02:50:05;;;;;;;13.23;12.20;;;8.10;99.90;;;;;;4940943;29;20236;-78
2022/09/29 02:52:46;;;;;;;13.17;12.17;;;8.10;99.90;;;;;;4959011;28;20241;-78
2022/09/29 02:55:19;;;;;;;14.20;13.20;;;8.10;99.90;;;;;;4947122;29;20213;-78
2022/09/29 02:57:51;;;;;;;13.80;12.70;;;8.20;99.90;;;;;;4939927;29;20202;-79
2022/09/29 03:00:19;;;;;;;14.90;13.80;;;8.10;99.90;;;;;;4938122;29;20640;-79
2022/09/29 03:02:46;;;;;;;14.17;13.20;;;8.10;99.90;;;;;;4945214;29;20651;-79
2022/09/29 03:05:16;;;;;;;14.37;13.30;;;8.10;99.90;;;;;;4948623;29;20216;-79
2022/09/29 03:07:44;;;;;;;13.73;12.73;;;8.10;99.90;;;;;;4937941;29;20211;-79
2022/09/29 03:10:13;;;;;;;14.67;13.63;;;8.10;99.90;;;;;;4937955;29;20221;-79
2022/09/29 03:12:40;;;;;;;15.73;14.40;;;8.10;99.90;;;;;;4939619;29;20225;-79
2022/09/29 03:15:10;;;;;;;14.90;13.73;;;8.10;99.90;;;;;;4948331;29;20257;-79
2022/09/29 03:17:37;;;;;;;14.83;13.67;;;8.10;99.90;;;;;;4945438;29;20207;-80
2022/09/29 03:20:05;;;;;;;14.30;13.33;;;8.20;99.90;;;;;;4947127;29;20199;-79
2022/09/29 03:22:32;;;;;;;13.80;12.90;;;8.10;99.90;;;;;;4953436;29;20223;-79
2022/09/29 03:25:00;;;;;;;13.47;12.57;;;8.10;99.90;;;;;;4945219;29;20206;-77
2022/09/29 03:27:27;;;;;;;13.37;12.57;;;8.10;99.90;;;;;;4952800;29;20211;-79
2022/09/29 03:29:54;;;;;;;14.43;13.53;;;8.10;99.90;;;;;;4949545;29;20290;-79
2022/09/29 03:32:21;;;;;;;15.47;14.33;;;8.10;99.90;;;;;;4945081;29;20233;-79
2022/09/29 03:34:48;;;;;;;15.23;13.87;;;8.10;99.90;;;;;;4945907;29;20195;-79
2022/09/29 03:37:15;;;;;;;14.63;13.60;;;8.10;99.90;;;;;;4948092;29;20286;-82
2022/09/29 03:39:41;;;;;;;14.30;13.00;;;8.00;99.90;;;;;;4945254;29;20258;-78
2022/09/29 03:42:10;;;;;;;13.20;12.30;;;8.00;99.90;;;;;;4946754;29;20206;-81
2022/09/29 03:44:37;;;;;;;13.70;12.70;;;7.90;99.90;;;;;;4944986;29;20211;-78
2022/09/29 03:47:03;;;;;;;14.40;13.40;;;8.00;99.90;;;;;;4939784;29;20206;-79
2022/09/29 03:49:30;;;;;;;15.50;14.40;;;7.90;99.90;;;;;;4948630;29;20596;-78
2022/09/29 03:51:57;;;;;;;16.07;14.90;;;7.90;99.90;;;;;;4944967;29;20209;-79
2022/09/29 03:54:26;;;;;;;16.00;14.80;;;7.90;99.90;;;;;;4948362;29;20782;-79
2022/09/29 03:56:53;;;;;;;16.50;15.30;;;7.80;99.90;;;;;;4945211;29;20254;-79
2022/09/29 03:59:22;;;;;;;15.97;14.87;;;7.80;99.90;;;;;;4946301;29;20257;-78
2022/09/29 04:01:49;;;;;;;16.73;15.63;;;7.70;99.90;;;;;;4943764;29;20208;-79
2022/09/29 04:04:16;;;;;;;16.17;14.87;;;7.70;99.90;;;;;;4939912;29;20711;-79
2022/09/29 04:06:43;;;;;;;16.73;15.53;;;7.60;99.90;;;;;;4947829;29;20197;-79
2022/09/29 04:09:10;;;;;;;16.60;15.47;;;7.60;99.90;;;;;;4942766;29;20206;-78
2022/09/29 04:11:37;;;;;;;17.63;16.17;;;7.60;99.90;;;;;;4945417;29;20204;-77
2022/09/29 04:14:04;;;;;;;16.77;15.57;;;7.60;99.90;;;;;;4944150;29;20218;-78
2022/09/29 04:16:32;;;;;;;17.20;15.83;;;7.60;99.90;;;;;;4944756;29;20204;-79
2022/09/29 04:18:59;;;;;;;16.53;15.40;;;7.60;99.90;;;;;;4944326;29;20662;-79
2022/09/29 04:21:26;;;;;;;16.77;15.47;;;7.60;99.90;;;;;;4939118;29;20554;-81
2022/09/29 04:23:53;;;;;;;15.43;14.43;;;7.60;99.90;;;;;;4943795;29;20221;-79
2022/09/29 04:26:20;;;;;;;13.57;12.47;;;7.60;99.90;;;;;;4945560;29;20216;-79
2022/09/29 04:28:47;;;;;;;10.27;9.47;;;7.60;99.90;;;;;;4944277;29;20212;-78
2022/09/29 04:31:14;;;;;;;8.23;7.43;;;7.60;99.90;;;;;;4939387;29;20240;-79
2022/09/29 04:33:42;;;;;;;12.20;11.23;;;7.50;99.90;;;;;;4940612;29;20998;-79
2022/09/29 04:36:09;;;;;;;11.47;10.40;;;7.50;99.90;;;;;;4943488;29;20249;-78
2022/09/29 04:38:36;;;;;;;11.33;10.33;;;7.60;99.90;;;;;;4942285;29;20198;-79
2022/09/29 04:41:03;;;;;;;10.50;9.60;;;7.60;99.90;;;;;;4943542;29;20568;-79
2022/09/29 04:43:30;;;;;;;9.77;8.97;;;7.60;99.90;;;;;;4944801;29;20233;-79
2022/09/29 04:46:05;;;;;;;7.07;6.37;;;7.60;99.90;;;;;;4944568;29;20200;-79
2022/09/29 04:48:32;;;;;;;9.17;7.97;;;7.60;99.90;;;;;;4933906;29;20213;-78
2022/09/29 04:51:00;;;;;;;12.90;11.90;;;7.60;99.90;;;;;;4937992;29;20761;-79
2022/09/29 04:53:27;;;;;;;8.90;8.20;;;7.70;99.90;;;;;;4945257;29;20301;-79
2022/09/29 04:55:54;;;;;;;7.37;6.70;;;7.60;99.90;;;;;;4941904;29;20206;-80
2022/09/29 04:58:21;;;;;;;14.70;13.60;;;7.60;99.90;;;;;;4944921;29;20202;-78
2022/09/29 05:00:48;;;;;;;16.60;15.20;;;7.60;99.90;;;;;;4942813;29;20205;-79
2022/09/29 05:03:15;;;;;;;13.20;12.17;;;7.70;99.90;;;;;;4944429;29;20222;-79
2022/09/29 05:05:42;;;;;;;11.23;10.23;;;7.70;99.90;;;;;;4940127;29;20213;-78
2022/09/29 05:08:10;;;;;;;10.90;10.07;;;7.70;99.90;;;;;;4945180;29;20207;-78
2022/09/29 05:10:37;;;;;;;10.80;9.80;;;7.70;99.90;;;;;;4942445;29;20300;-80
2022/09/29 05:13:04;;;;;;;8.93;8.10;;;7.70;99.90;;;;;;4939813;29;20226;-79
2022/09/29 05:15:31;;;;;;;9.90;9.00;;;7.80;99.90;;;;;;4944050;29;20688;-78
2022/09/29 05:18:02;;;;;;;9.10;8.30;;;7.80;99.90;;;;;;4942058;29;20674;-79
2022/09/29 05:20:28;;;;;;;8.50;7.70;;;7.70;99.90;;;;;;4940203;29;20206;-78
2022/09/29 05:22:58;;;;;;;8.77;7.97;;;7.70;99.90;;;;;;4942866;29;20854;-79
2022/09/29 05:25:26;;;;;;;8.17;7.23;;;7.70;99.90;;;;;;4941757;29;20217;-79
2022/09/29 05:27:53;;;;;;;6.43;5.60;;;7.70;99.90;;;;;;4945832;29;20260;-79
2022/09/29 05:30:20;;;;;;;8.10;6.73;;;7.60;99.90;;;;;;4945993;28;20230;-79
2022/09/29 05:32:47;;;;;;;11.17;9.93;;;7.70;99.90;;;;;;4945085;29;20261;-80
2022/09/29 05:35:14;;;;;;;10.87;6.87;;;7.80;99.90;;;;;;4948415;29;20668;-79
2022/09/29 05:37:41;;;;;;;8.43;6.60;;;7.70;99.90;;;;;;4939685;29;20721;-79
2022/09/29 05:40:09;;;;;;;7.27;6.47;;;7.80;99.90;;;;;;4946858;29;20196;-79
2022/09/29 05:42:37;;;;;;;8.03;7.20;;;7.80;99.90;;;;;;4942835;29;20678;-79
2022/09/29 05:45:05;;;;;;;6.57;5.93;;;7.90;99.90;;;;;;4948786;28;20211;-79
2022/09/29 05:47:32;;;;;;;6.70;6.00;;;7.90;99.90;;;;;;4944880;29;20694;-78
2022/09/29 05:49:59;;;;;;;6.57;5.97;;;8.00;99.90;;;;;;4942819;28;20224;-79
2022/09/29 05:52:25;;;;;;;9.07;8.30;;;8.00;99.90;;;;;;4947045;29;20232;-79
2022/09/29 05:54:52;;;;;;;5.73;5.23;;;8.00;99.90;;;;;;4948620;28;20205;-79
2022/09/29 05:57:19;;;;;;;7.87;6.33;;;8.00;99.90;;;;;;4956816;28;20563;-78
2022/09/29 05:59:47;;;;;;;9.70;8.97;;;8.00;99.90;;;;;;4945662;29;20226;-79
2022/09/29 06:02:15;;;;;;;10.80;10.03;;;8.10;99.90;;;;;;4947582;29;20206;-78
2022/09/29 06:04:42;;;;;;;5.93;5.43;;;8.10;99.90;;;;;;4941066;29;20209;-79
2022/09/29 06:07:09;;;;;;;6.70;6.10;;;8.20;99.90;;;;;;4945917;29;20195;-79
2022/09/29 06:09:36;;;;;;;7.30;6.70;;;8.20;99.90;;;;;;4936545;29;20217;-78
2022/09/29 06:12:04;;;;;;;10.43;9.63;;;8.20;99.90;;;;;;4945032;29;20230;-79
2022/09/29 06:14:30;;;;;;;8.17;7.47;;;8.30;99.90;;;;;;4940576;29;20213;-79
2022/09/29 06:16:59;;;;;;;8.50;7.80;;;8.30;99.90;;;;;;4946130;29;20273;-78
2022/09/29 06:19:26;;;;;;;5.67;5.17;;;8.40;99.90;;;;;;4939624;29;20221;-78
2022/09/29 06:21:52;;;;;;;7.30;5.60;;;8.30;99.90;;;;;;4943296;28;20193;-79
2022/09/29 06:24:19;;;;;;;5.90;5.40;;;8.40;99.90;;;;;;4943549;29;20227;-79
2022/09/29 06:26:46;;;;;;;5.53;5.03;;;8.40;99.90;;;;;;4943738;29;20213;-79
2022/09/29 06:29:14;;;;;;;7.03;5.50;;;8.50;99.90;;;;;;4942953;29;20668;-79
2022/09/29 06:31:41;;;;;;;6.13;5.57;;;8.50;99.90;;;;;;4943765;29;20230;-79
2022/09/29 06:34:10;;;;;;;7.40;6.70;;;8.50;99.90;;;;;;4945109;29;20234;-79
2022/09/29 06:39:28;;;;;;;13.83;12.93;;;8.70;99.90;;;;;;4920936;29;20225;-79
2022/09/29 06:41:55;;;;;;;14.20;13.10;;;8.80;99.90;;;;;;4938640;29;20203;-79
2022/09/29 06:44:24;;;;;;;5.57;5.03;;;8.90;99.90;;;;;;4945639;29;20649;-80
2022/09/29 06:46:52;;;;;;;5.83;5.33;;;9.00;99.90;;;;;;4943874;28;20226;-83
2022/09/29 06:49:21;;;;;;;5.90;5.40;;;9.00;99.90;;;;;;4949411;29;20196;-80
2022/09/29 06:51:47;;;;;;;5.73;5.23;;;9.00;99.90;;;;;;4948836;29;20235;-82
2022/09/29 06:54:16;;;;;;;6.63;5.77;;;9.00;99.90;;;;;;4944315;29;20218;-80
2022/09/29 06:56:46;;;;;;;6.30;5.70;;;9.10;99.90;;;;;;4946032;29;20212;-79
2022/09/29 06:59:13;;;;;;;6.10;5.50;;;9.10;99.90;;;;;;4942528;28;20195;-80
2022/09/29 07:01:40;;;;;;;8.20;7.50;;;9.20;99.90;;;;;;4948949;28;20187;-79
2022/09/29 07:04:07;;;;;;;9.77;7.03;;;9.30;99.90;;;;;;4944104;28;20700;-79
2022/09/29 07:06:35;;;;;;;8.00;7.20;;;9.30;99.90;;;;;;4946392;29;20194;-78
2022/09/29 07:09:03;;;;;;;11.80;10.90;;;9.40;99.90;;;;;;4945699;29;20205;-80
2022/09/29 07:11:30;;;;;;;12.03;11.23;;;9.50;99.90;;;;;;4945522;29;20215;-79
2022/09/29 07:13:56;;;;;;;11.17;10.20;;;9.50;99.90;;;;;;4944289;29;20237;-79
2022/09/29 07:16:24;;;;;;;8.67;7.93;;;9.60;99.90;;;;;;4939814;29;20226;-79
2022/09/29 07:18:51;;;;;;;14.30;13.30;;;9.60;99.90;;;;;;4947131;28;20203;-79
2022/09/29 07:21:20;;;;;;;14.70;13.70;;;9.50;99.90;;;;;;4944510;29;20203;-78
2022/09/29 07:23:49;;;;;;;13.50;12.50;;;9.50;99.90;;;;;;4949507;29;20321;-79
2022/09/29 07:26:17;;;;;;;13.60;12.70;;;9.50;99.90;;;;;;4945024;29;20692;-79
2022/09/29 07:28:45;;;;;;;15.57;14.50;;;9.50;99.90;;;;;;4948785;29;20238;-79
2022/09/29 07:31:14;;;;;;;15.83;14.63;;;9.50;99.90;;;;;;4942487;29;20230;-80
2022/09/29 07:33:41;;;;;;;14.70;13.70;;;9.60;99.90;;;;;;4972212;23;20230;-79
2022/09/29 07:36:08;;;;;;;12.57;11.67;;;9.70;99.90;;;;;;4931099;29;20261;-79
2022/09/29 07:38:35;;;;;;;16.47;15.27;;;9.70;99.90;;;;;;4956070;29;20568;-79
2022/09/29 07:41:05;;;;;;;14.40;13.40;;;9.80;99.90;;;;;;4955343;29;20191;-79
2022/09/29 07:43:32;;;;;;;14.77;13.80;;;9.80;99.90;;;;;;4955886;28;20221;-78
2022/09/29 07:46:00;;;;;;;16.40;15.20;;;9.90;99.90;;;;;;4944189;29;20250;-79
2022/09/29 07:48:28;;;;;;;15.40;14.37;;;9.90;99.90;;;;;;4945674;29;20825;-82
2022/09/29 07:51:01;;;;;;;7.97;7.23;;;9.90;99.90;;;;;;4941277;29;20215;-82
2022/09/29 07:53:31;;;;;;;13.37;12.57;;;10.10;99.90;;;;;;4927811;29;20223;-82
2022/09/29 07:56:04;;;;;;;14.17;13.17;;;10.10;99.90;;;;;;4931817;29;20683;-82
2022/09/29 07:58:32;;;;;;;8.73;8.03;;;10.20;99.90;;;;;;4951563;29;20664;-82
2022/09/29 08:01:00;;;;;;;14.20;13.30;;;10.30;99.90;;;;;;4950563;29;20749;-82
2022/09/29 08:03:28;;;;;;;14.20;13.30;;;10.30;99.90;;;;;;4922668;29;20491;-79
2022/09/29 08:05:58;;;;;;;10.70;9.90;;;10.30;99.90;;;;;;4922791;29;20230;-79
2022/09/29 08:08:25;;;;;;;8.97;8.27;;;10.30;99.90;;;;;;4926906;29;20216;-79
2022/09/29 08:10:52;;;;;;;9.80;8.93;;;10.40;99.90;;;;;;4926553;29;20227;-79
2022/09/29 08:13:20;;;;;;;8.90;8.10;;;10.50;99.90;;;;;;4946315;29;20227;-80
2022/09/29 08:15:47;;;;;;;7.10;6.50;;;10.60;99.90;;;;;;4944332;29;20699;-80
2022/09/29 08:18:14;;;;;;;7.13;6.53;;;10.70;99.90;;;;;;4948118;29;20198;-82
2022/09/29 08:20:41;;;;;;;6.40;5.57;;;10.90;99.90;;;;;;4924991;29;20204;-83
2022/09/29 08:23:08;;;;;;;6.30;5.37;;;11.00;99.90;;;;;;4927942;29;20225;-83
2022/09/29 08:25:35;;;;;;;6.00;5.40;;;11.00;99.90;;;;;;4930149;29;20584;-83
2022/09/29 08:28:02;;;;;;;5.87;5.37;;;11.00;99.90;;;;;;4930685;29;20234;-82
2022/09/29 08:30:31;;;;;;;11.47;10.57;;;10.90;99.90;;;;;;4921747;29;20295;-82
2022/09/29 08:32:57;;;;;;;12.57;11.53;;;10.90;99.90;;;;;;4919047;29;20714;-83
2022/09/29 08:35:25;;;;;;;12.55;11.75;;;10.80;99.90;;;;;;4918718;29;20457;-80
2022/09/29 08:37:54;;;;;;;13.73;12.85;;;10.80;99.90;;;;;;4918814;29;20453;-79
2022/09/29 08:40:21;;;;;;;13.17;12.27;;;10.90;99.90;;;;;;4942926;29;20215;-80
2022/09/29 08:42:57;;;;;;;13.77;12.77;;;11.00;99.90;;;;;;4929309;28;20234;-80
2022/09/29 08:45:29;;;;;;;13.43;12.63;;;11.20;99.90;;;;;;4925520;29;20208;-79
2022/09/29 08:48:06;;;;;;;12.53;11.83;;;11.40;99.90;;;;;;4942928;29;20205;-80
2022/09/29 08:50:38;;;;;;;13.80;12.63;;;11.80;99.90;;;;;;4934299;29;20586;-80
2022/09/29 08:53:08;;;;;;;13.00;11.80;;;11.90;99.90;;;;;;4944390;29;20283;-79
2022/09/29 08:55:43;;;;;;;9.77;9.07;;;11.90;99.90;;;;;;4937215;29;20194;-79
2022/09/29 08:58:13;;;;;;;11.40;10.60;;;12.20;99.90;;;;;;4945154;29;20253;-81
2022/09/29 09:00:46;;;;;;;13.70;12.80;;;12.80;99.90;;;;;;4924083;29;20202;-79
2022/09/29 09:03:39;;;;;;;5.30;4.80;;;13.20;99.90;;;;;;4940996;29;20626;-79
2022/09/29 09:06:23;;;;;;;5.37;4.87;;;13.30;99.90;;;;;;4942743;29;20214;-79
2022/09/29 09:09:14;;;;;;;10.20;9.50;;;13.30;99.90;;;;;;4933966;29;20849;-80
2022/09/29 09:11:53;;;;;;;13.63;12.70;;;13.50;99.90;;;;;;4910680;29;20475;-80
2022/09/29 09:14:36;;;;;;;10.47;9.77;;;13.60;99.90;;;;;;4921249;29;20238;-80
2022/09/29 09:17:16;;;;;;;9.93;9.13;;;13.50;99.90;;;;;;4928475;29;20214;-82
2022/09/29 09:20:09;;;;;;;10.13;9.37;;;13.80;99.90;;;;;;4925850;29;20208;-80
2022/09/29 09:22:45;;;;;;;5.30;4.80;;;13.70;99.90;;;;;;4924471;28;20289;-80
2022/09/29 09:25:23;;;;;;;12.20;11.40;;;13.90;99.90;;;;;;4921097;29;20212;-80
2022/09/29 09:27:59;;;;;;;9.97;9.20;;;14.10;99.90;;;;;;4937737;29;20252;-80
2022/09/29 09:30:30;;;;;;;10.70;9.90;;;14.10;99.90;;;;;;4927469;29;20581;-80
2022/09/29 09:33:02;;;;;;;11.80;11.10;;;14.00;99.90;;;;;;4942855;29;20229;-79
2022/09/29 09:35:37;;;;;;;9.70;9.00;;;13.90;99.90;;;;;;4941775;29;20262;-80
2022/09/29 09:38:11;;;;;;;9.47;8.77;;;14.00;99.90;;;;;;4944242;29;20196;-80
2022/09/29 09:40:42;;;;;;;9.30;8.60;;;13.90;99.90;;;;;;4922458;29;20206;-80
2022/09/29 09:43:14;;;;;;;9.73;8.90;;;13.90;99.90;;;;;;4927484;29;20221;-79
2022/09/29 09:45:48;;;;;;;8.67;8.07;;;13.90;99.90;;;;;;4924455;29;20218;-79
2022/09/29 09:48:19;;;;;;;8.93;8.23;;;13.80;99.90;;;;;;4927527;29;20293;-80
2022/09/29 09:50:49;;;;;;;10.23;9.47;;;13.80;99.90;;;;;;4924404;29;20216;-79
2022/09/29 09:53:21;;;;;;;10.97;10.17;;;13.90;99.90;;;;;;4943339;29;20778;-80
2022/09/29 09:56:03;;;;;;;9.50;8.80;;;13.80;99.90;;;;;;4942368;29;20204;-79
2022/09/29 09:58:43;;;;;;;11.00;10.30;;;13.90;99.90;;;;;;4934891;29;20200;-79
2022/09/29 10:01:11;;;;;;;10.23;9.53;;;14.00;99.90;;;;;;4926192;29;20209;-80
2022/09/29 10:03:38;;;;;;;10.47;9.73;;;13.90;99.90;;;;;;4927627;29;20223;-81
2022/09/29 10:06:08;;;;;;;11.33;10.53;;;13.90;99.90;;;;;;4927805;29;20211;-80
2022/09/29 10:08:38;;;;;;;11.10;10.40;;;14.00;99.90;;;;;;4922675;29;20206;-79
2022/09/29 10:11:21;;;;;;;10.43;9.73;;;13.90;99.90;;;;;;4920828;29;20211;-80
2022/09/29 10:13:50;;;;;;;9.50;8.80;;;14.00;99.90;;;;;;4945666;29;20242;-81
2022/09/29 10:16:22;;;;;;;11.17;10.27;;;14.20;99.90;;;;;;4941343;29;20199;-80
2022/09/29 10:18:51;;;;;;;10.00;9.10;;;14.20;99.90;;;;;;4947583;29;20274;-79
2022/09/29 10:21:37;;;;;;;10.03;9.43;;;14.00;99.90;;;;;;4926762;29;20272;-79
2022/09/29 10:24:06;;;;;;;9.90;9.30;;;14.10;99.90;;;;;;4942295;28;20225;-80
2022/09/29 10:26:35;;;;;;;10.70;10.00;;;14.20;99.90;;;;;;4925150;29;20204;-80
2022/09/29 10:29:04;;;;;;;9.30;8.60;;;14.20;99.90;;;;;;4943537;28;20575;-79
2022/09/29 10:31:34;;;;;;;9.57;8.70;;;14.10;99.90;;;;;;4943222;29;20636;-79
2022/09/29 10:34:13;;;;;;;11.27;10.57;;;14.10;99.90;;;;;;4928527;29;20234;-80
2022/09/29 10:36:51;;;;;;;9.93;9.00;;;14.20;99.90;;;;;;4936714;29;20678;-81
2022/09/29 10:39:32;;;;;;;8.83;8.23;;;14.30;99.90;;;;;;4930640;29;20702;-79
2022/09/29 10:41:59;;;;;;;6.30;5.80;;;14.40;99.90;;;;;;4934583;29;20275;-79
2022/09/29 10:44:31;;;;;;;6.63;6.23;;;14.30;99.90;;;;;;4924286;29;20597;-80
2022/09/29 10:47:00;;;;;;;7.43;6.83;;;14.40;99.90;;;;;;4941770;29;20217;-79
2022/09/29 10:49:28;;;;;;;7.30;6.70;;;14.40;99.90;;;;;;4948436;29;20239;-79
2022/09/29 10:52:01;;;;;;;8.40;7.80;;;14.50;99.90;;;;;;4944353;29;20222;-79
2022/09/29 10:54:31;;;;;;;9.43;8.93;;;14.50;99.90;;;;;;4937601;29;20462;-80
2022/09/29 10:56:59;;;;;;;8.47;7.87;;;14.50;99.90;;;;;;4945252;29;20199;-80
2022/09/29 10:59:26;;;;;;;7.30;6.83;;;14.40;99.90;;;;;;4947051;29;20195;-79
2022/09/29 11:01:55;;;;;;;6.10;5.70;;;14.40;99.90;;;;;;4945717;29;20205;-81
2022/09/29 11:04:26;;;;;;;7.87;7.27;;;14.40;99.90;;;;;;4930120;29;20281;-80
2022/09/29 11:06:54;;;;;;;6.20;5.73;;;14.50;99.90;;;;;;4927372;29;20210;-79
2022/09/29 11:09:30;;;;;;;6.20;5.70;;;14.70;99.90;;;;;;4928742;29;20655;-79
2022/09/29 11:11:58;;;;;;;5.33;4.50;;;14.60;99.90;;;;;;4927380;29;20230;-82
2022/09/29 11:14:27;;;;;;;4.97;3.43;;;14.80;99.90;;;;;;4952666;28;20630;-80
2022/09/29 11:16:56;;;;;;;5.77;5.37;;;14.70;99.90;;;;;;4935631;29;20202;-79
2022/09/29 11:19:23;;;;;;;9.37;8.67;;;14.80;99.90;;;;;;4935387;29;20199;-80
2022/09/29 11:22:54;;;;;;;9.37;8.77;;;15.10;99.90;;;;;;4928163;29;20195;-81
2022/09/29 11:25:39;;;;;;;8.30;7.70;;;15.10;99.90;;;;;;4854426;29;20562;-80
2022/09/29 11:28:24;;;;;;;8.00;7.50;;;15.00;99.90;;;;;;4903349;29;20218;-80
2022/09/29 11:31:07;;;;;;;9.67;8.70;;;15.30;99.90;;;;;;4943493;29;20205;-80
2022/09/29 11:34:15;;;;;;;8.30;7.70;;;14.90;99.90;;;;;;5076903;27;1551877;-83
2022/09/29 11:36:50;;;;;;;7.93;7.33;;;14.90;99.90;;;;;;5079221;28;20694;-83
2022/09/29 11:39:29;;;;;;;8.67;8.07;;;14.90;99.90;;;;;;5106105;28;20202;-83
2022/09/29 11:42:10;;;;;;;9.53;8.93;;;15.10;99.90;;;;;;5083074;28;20205;-83
2022/09/29 11:44:58;;;;;;;9.50;8.90;;;15.00;99.90;;;;;;5111325;28;20214;-83
2022/09/29 11:47:57;;;;;;;9.40;8.80;;;14.90;99.90;;;;;;5093702;22;20704;-77
2022/09/29 11:50:37;;;;;;;9.40;8.80;;;14.90;99.90;;;;;;5051516;28;20232;-77
2022/09/29 11:53:31;;;;;;;9.47;8.70;;;14.90;99.90;;;;;;5062010;28;20257;-77
2022/09/29 11:56:13;;;;;;;8.53;7.93;;;15.00;99.90;;;;;;5065241;28;20225;-76
2022/09/29 11:59:07;;;;;;;8.37;7.70;;;15.10;99.90;;;;;;5061128;28;20207;-76
2022/09/29 12:01:51;;;;;;;8.93;8.43;;;15.50;99.90;;;;;;5061780;28;20201;-77
2022/09/29 12:04:33;;;;;;;9.97;9.37;;;15.70;99.90;;;;;;5062845;28;20250;-78
2022/09/29 12:07:07;;;;;;;9.93;9.17;;;15.80;99.90;;;;;;5062762;28;20229;-77
2022/09/29 12:09:56;;;;;;;10.07;9.17;;;15.60;99.90;;;;;;5059385;28;20655;-76
2022/09/29 12:12:29;;;;;;;8.67;8.17;;;15.40;99.90;;;;;;5067102;28;20273;-78
2022/09/29 12:15:22;;;;;;;9.33;8.73;;;15.40;99.90;;;;;;5065761;28;20199;-76
2022/09/29 12:17:52;;;;;;;9.13;8.53;;;15.50;99.90;;;;;;5061274;28;20205;-77
2022/09/29 12:20:22;;;;;;;8.60;8.10;;;15.50;99.90;;;;;;5065283;28;20207;-76
2022/09/29 12:22:53;;;;;;;8.70;8.10;;;15.50;99.90;;;;;;5066142;28;20196;-76
2022/09/29 12:25:24;;;;;;;8.93;8.23;;;15.50;99.90;;;;;;5075422;28;20305;-76
2022/09/29 12:27:54;;;;;;;9.03;8.43;;;15.60;99.90;;;;;;5064584;28;20207;-78
2022/09/29 12:30:25;;;;;;;9.20;8.50;;;15.40;99.90;;;;;;5065773;28;20214;-76
2022/09/29 12:32:57;;;;;;;8.80;8.17;;;15.20;99.90;;;;;;5066603;28;20210;-77
2022/09/29 12:35:34;;;;;;;6.30;5.90;;;14.90;99.90;;;;;;5065338;28;20236;-77
2022/09/29 12:38:14;;;;;;;8.00;7.50;;;15.00;99.90;;;;;;5060031;28;20212;-77
2022/09/29 12:40:44;;;;;;;7.80;7.30;;;15.10;99.90;;;;;;5057631;28;20203;-78
2022/09/29 12:43:17;;;;;;;8.33;7.83;;;15.30;99.90;;;;;;5059738;28;20263;-78
2022/09/29 12:45:51;;;;;;;7.30;6.80;;;15.40;99.90;;;;;;5059351;28;20221;-76
2022/09/29 12:48:29;;;;;;;8.43;7.83;;;15.40;99.90;;;;;;5045826;28;20230;-78
2022/09/29 12:51:02;;;;;;;7.43;6.83;;;15.40;99.90;;;;;;5044574;28;20233;-78
2022/09/29 12:53:37;;;;;;;7.90;7.30;;;15.60;99.90;;;;;;5044353;28;20219;-76
2022/09/29 12:56:11;;;;;;;7.20;6.77;;;15.60;99.90;;;;;;5044734;28;20219;-77
2022/09/29 12:58:42;;;;;;;8.03;7.53;;;15.60;99.90;;;;;;5057810;28;20230;-78
2022/09/29 13:01:22;;;;;;;8.10;7.40;;;15.70;99.90;;;;;;5040213;28;20226;-80
2022/09/29 13:04:26;;;;;;;7.70;7.20;;;15.40;99.90;;;;;;5038654;28;20210;-79
2022/09/29 13:07:11;;;;;;;7.50;7.00;;;15.30;99.90;;;;;;5039539;28;20219;-79
2022/09/29 13:10:22;;;;;;;7.10;6.70;;;15.20;99.90;;;;;;5040187;28;20210;-80